sensor_id;sensor_type;location;lat;lon;timestamp;pressure;altitude;pressure_sealevel;temperature;humidity
19508;BME280;40157;42.566;27.526;2023-04-03T00:00:00;100316.81;;;13.01;69.93
19508;BME280;40157;42.566;27.526;2023-04-03T00:02:01;100338.69;;;13.10;70.60
19508;BME280;40157;42.566;27.526;2023-04-03T00:04:01;100345.72;;;13.08;70.84
19508;BME280;40157;42.566;27.526;2023-04-03T00:06:02;100339.59;;;12.99;70.83
19508;BME280;40157;42.566;27.526;2023-04-03T00:08:03;100342.22;;;13.06;71.02
19508;BME280;40157;42.566;27.526;2023-04-03T00:10:05;100335.22;;;12.99;70.59
19508;BME280;40157;42.566;27.526;2023-04-03T00:12:05;100335.22;;;12.96;70.67
19508;BME280;40157;42.566;27.526;2023-04-03T00:14:06;100334.34;;;12.91;70.83
19508;BME280;40157;42.566;27.526;2023-04-03T00:16:08;100315.91;;;12.88;70.97
19508;BME280;40157;42.566;27.526;2023-04-03T00:18:09;100338.72;;;12.83;71.78
19508;BME280;40157;42.566;27.526;2023-04-03T00:20:10;100293.97;;;12.67;71.45
19508;BME280;40157;42.566;27.526;2023-04-03T00:22:10;100330.81;;;12.89;71.41
19508;BME280;40157;42.566;27.526;2023-04-03T00:24:10;100341.34;;;12.95;71.63
19508;BME280;40157;42.566;27.526;2023-04-03T00:26:11;100312.41;;;12.86;71.38
19508;BME280;40157;42.566;27.526;2023-04-03T00:28:12;100312.41;;;12.92;71.48
19508;BME280;40157;42.566;27.526;2023-04-03T00:30:15;100317.66;;;12.95;71.23
19508;BME280;40157;42.566;27.526;2023-04-03T00:32:16;100285.25;;;12.77;71.13
19508;BME280;40157;42.566;27.526;2023-04-03T00:34:16;100248.38;;;12.62;71.18
19508;BME280;40157;42.566;27.526;2023-04-03T00:36:17;100306.25;;;12.90;71.36
19508;BME280;40157;42.566;27.526;2023-04-03T00:38:17;100304.53;;;12.86;71.44
19508;BME280;40157;42.566;27.526;2023-04-03T00:40:19;100291.38;;;12.76;71.61
19508;BME280;40157;42.566;27.526;2023-04-03T00:42:20;100324.69;;;12.93;71.50
19508;BME280;40157;42.566;27.526;2023-04-03T00:46:43;100306.25;;;12.84;71.44
19508;BME280;40157;42.566;27.526;2023-04-03T00:48:45;100322.94;;;12.95;71.21
19508;BME280;40157;42.566;27.526;2023-04-03T00:50:46;100258.94;;;12.59;70.99
19508;BME280;40157;42.566;27.526;2023-04-03T00:52:48;100320.28;;;12.95;71.10
19508;BME280;40157;42.566;27.526;2023-04-03T00:54:50;100328.19;;;12.96;71.07
19508;BME280;40157;42.566;27.526;2023-04-03T00:56:53;100321.16;;;12.95;70.99
19508;BME280;40157;42.566;27.526;2023-04-03T00:59:08;100327.31;;;12.93;70.96
19508;BME280;40157;42.566;27.526;2023-04-03T01:01:14;100272.06;;;12.50;70.96
19508;BME280;40157;42.566;27.526;2023-04-03T01:03:16;100316.78;;;12.74;71.14
19508;BME280;40157;42.566;27.526;2023-04-03T01:05:17;100323.81;;;12.72;71.17
19508;BME280;40157;42.566;27.526;2023-04-03T01:07:22;100338.69;;;12.67;71.36
19508;BME280;40157;42.566;27.526;2023-04-03T01:09:23;100317.66;;;12.61;71.55
19508;BME280;40157;42.566;27.526;2023-04-03T01:11:24;100306.25;;;12.53;71.54
19508;BME280;40157;42.566;27.526;2023-04-03T01:13:27;100304.50;;;12.46;71.36
19508;BME280;40157;42.566;27.526;2023-04-03T01:15:28;100330.81;;;12.66;71.58
19508;BME280;40157;42.566;27.526;2023-04-03T01:17:39;100333.44;;;12.69;71.46
19508;BME280;40157;42.566;27.526;2023-04-03T01:19:43;100337.81;;;12.68;71.64
19508;BME280;40157;42.566;27.526;2023-04-03T01:26:27;100316.78;;;12.53;71.83
19508;BME280;40157;42.566;27.526;2023-04-03T01:28:32;100308.88;;;12.50;71.76
19508;BME280;40157;42.566;27.526;2023-04-03T01:30:36;100293.97;;;12.39;71.77
19508;BME280;40157;42.566;27.526;2023-04-03T01:32:41;100272.91;;;12.32;71.46
19508;BME280;40157;42.566;27.526;2023-04-03T01:34:42;100304.50;;;12.43;71.46
19508;BME280;40157;42.566;27.526;2023-04-03T01:36:42;100307.09;;;12.35;70.92
19508;BME280;40157;42.566;27.526;2023-04-03T01:38:43;100266.75;;;12.13;70.78
19508;BME280;40157;42.566;27.526;2023-04-03T01:40:43;100284.28;;;12.20;70.29
19508;BME280;40157;42.566;27.526;2023-04-03T01:42:44;100279.03;;;12.11;69.06
19508;BME280;40157;42.566;27.526;2023-04-03T01:44:44;100300.03;;;12.17;68.97
19508;BME280;40157;42.566;27.526;2023-04-03T01:46:45;100307.03;;;12.12;69.00
19508;BME280;40157;42.566;27.526;2023-04-03T01:48:46;100332.44;;;12.19;68.88
19508;BME280;40157;42.566;27.526;2023-04-03T01:50:47;100321.00;;;11.97;69.12
19508;BME280;40157;42.566;27.526;2023-04-03T01:52:47;100310.41;;;11.81;69.58
19508;BME280;40157;42.566;27.526;2023-04-03T01:54:48;100309.50;;;11.76;69.71
19508;BME280;40157;42.566;27.526;2023-04-03T01:56:48;100333.22;;;11.92;69.68
19508;BME280;40157;42.566;27.526;2023-04-03T01:58:49;100344.66;;;11.98;69.60
19508;BME280;40157;42.566;27.526;2023-04-03T02:00:50;100323.59;;;11.91;69.61
19508;BME280;40157;42.566;27.526;2023-04-03T02:02:51;100315.72;;;11.92;69.58
19508;BME280;40157;42.566;27.526;2023-04-03T02:04:51;100300.75;;;11.82;69.44
19508;BME280;40157;42.566;27.526;2023-04-03T02:06:52;100307.88;;;12.01;69.36
19508;BME280;40157;42.566;27.526;2023-04-03T02:08:52;100288.59;;;11.95;69.07
19508;BME280;40157;42.566;27.526;2023-04-03T02:10:52;100305.25;;;12.03;68.95
19508;BME280;40157;42.566;27.526;2023-04-03T02:12:53;100292.06;;;11.92;68.95
19508;BME280;40157;42.566;27.526;2023-04-03T02:14:53;100316.63;;;12.03;68.94
19508;BME280;40157;42.566;27.526;2023-04-03T02:16:54;100296.50;;;12.02;69.01
19508;BME280;40157;42.566;27.526;2023-04-03T02:18:54;100284.19;;;11.94;68.88
19508;BME280;40157;42.566;27.526;2023-04-03T02:20:55;100280.72;;;11.95;68.92
19508;BME280;40157;42.566;27.526;2023-04-03T02:22:55;100253.47;;;11.77;69.26
19508;BME280;40157;42.566;27.526;2023-04-03T02:24:56;100249.09;;;11.78;69.28
19508;BME280;40157;42.566;27.526;2023-04-03T02:26:57;100256.09;;;11.74;69.14
19508;BME280;40157;42.566;27.526;2023-04-03T02:28:57;100313.13;;;11.98;69.11
19508;BME280;40157;42.566;27.526;2023-04-03T02:30:57;100284.13;;;11.81;69.02
19508;BME280;40157;42.566;27.526;2023-04-03T02:32:58;100330.66;;;11.99;68.74
19508;BME280;40157;42.566;27.526;2023-04-03T02:34:58;100331.47;;;11.89;68.62
19508;BME280;40157;42.566;27.526;2023-04-03T02:36:59;100274.41;;;11.54;68.82
19508;BME280;40157;42.566;27.526;2023-04-03T02:38:59;100260.22;;;11.21;69.63
19508;BME280;40157;42.566;27.526;2023-04-03T02:41:05;100351.31;;;11.44;70.72
19508;BME280;40157;42.566;27.526;2023-04-03T02:43:06;100347.66;;;11.20;72.04
19508;BME280;40157;42.566;27.526;2023-04-03T02:45:07;100337.06;;;11.05;72.46
19508;BME280;40157;42.566;27.526;2023-04-03T02:47:07;100331.69;;;10.89;72.90
19508;BME280;40157;42.566;27.526;2023-04-03T02:49:08;100328.06;;;10.75;73.42
19508;BME280;40157;42.566;27.526;2023-04-03T02:51:08;100323.47;;;10.54;74.33
19508;BME280;40157;42.566;27.526;2023-04-03T02:53:09;100322.59;;;10.52;75.75
19508;BME280;40157;42.566;27.526;2023-04-03T02:55:14;100334.88;;;10.54;78.10
19508;BME280;40157;42.566;27.526;2023-04-03T02:57:16;100330.38;;;10.46;79.57
19508;BME280;40157;42.566;27.526;2023-04-03T02:59:16;100299.69;;;10.34;80.32
19508;BME280;40157;42.566;27.526;2023-04-03T03:01:16;100333.09;;;10.53;81.05
19508;BME280;40157;42.566;27.526;2023-04-03T03:03:17;100338.31;;;10.50;80.83
19508;BME280;40157;42.566;27.526;2023-04-03T03:05:17;100350.44;;;10.42;80.58
19508;BME280;40157;42.566;27.526;2023-04-03T03:07:18;100338.19;;;10.36;80.48
19508;BME280;40157;42.566;27.526;2023-04-03T03:09:18;100307.41;;;10.20;80.23
19508;BME280;40157;42.566;27.526;2023-04-03T03:11:19;100291.59;;;10.12;79.73
19508;BME280;40157;42.566;27.526;2023-04-03T03:13:20;100343.66;;;10.60;79.17
19508;BME280;40157;42.566;27.526;2023-04-03T03:15:20;100355.97;;;10.68;78.76
19508;BME280;40157;42.566;27.526;2023-04-03T03:17:21;100349.84;;;10.66;78.53
19508;BME280;40157;42.566;27.526;2023-04-03T03:19:21;100360.44;;;10.79;77.89
19508;BME280;40157;42.566;27.526;2023-04-03T03:21:21;100359.69;;;10.93;77.70
19508;BME280;40157;42.566;27.526;2023-04-03T03:23:23;100313.97;;;10.64;77.61
19508;BME280;40157;42.566;27.526;2023-04-03T03:25:24;100384.06;;;10.83;77.66
19508;BME280;40157;42.566;27.526;2023-04-03T03:27:25;100374.41;;;10.76;77.99
19508;BME280;40157;42.566;27.526;2023-04-03T03:29:25;100375.25;;;10.75;77.88
19508;BME280;40157;42.566;27.526;2023-04-03T03:31:26;100375.06;;;10.57;77.97
19508;BME280;40157;42.566;27.526;2023-04-03T03:33:26;100301.19;;;10.10;78.01
19508;BME280;40157;42.566;27.526;2023-04-03T03:35:27;100376.78;;;10.51;78.18
19508;BME280;40157;42.566;27.526;2023-04-03T03:37:27;100363.66;;;10.50;77.91
19508;BME280;40157;42.566;27.526;2023-04-03T03:39:28;100377.81;;;10.70;77.62
19508;BME280;40157;42.566;27.526;2023-04-03T03:41:28;100359.47;;;10.66;77.24
19508;BME280;40157;42.566;27.526;2023-04-03T03:43:29;100342.03;;;10.71;77.20
19508;BME280;40157;42.566;27.526;2023-04-03T03:45:30;100310.34;;;10.46;77.23
19508;BME280;40157;42.566;27.526;2023-04-03T03:47:31;100274.41;;;10.36;77.29
19508;BME280;40157;42.566;27.526;2023-04-03T03:49:31;100284.19;;;10.52;77.02
19508;BME280;40157;42.566;27.526;2023-04-03T03:51:32;100337.81;;;10.90;76.90
19508;BME280;40157;42.566;27.526;2023-04-03T03:53:32;100336.97;;;10.92;76.53
19508;BME280;40157;42.566;27.526;2023-04-03T03:55:33;100370.38;;;11.15;76.27
19508;BME280;40157;42.566;27.526;2023-04-03T03:57:33;100319.50;;;10.96;75.87
19508;BME280;40157;42.566;27.526;2023-04-03T03:59:34;100373.09;;;11.27;75.31
19508;BME280;40157;42.566;27.526;2023-04-03T04:01:34;100382.66;;;11.22;74.54
19508;BME280;40157;42.566;27.526;2023-04-03T04:03:35;100380.94;;;11.24;74.02
19508;BME280;40157;42.566;27.526;2023-04-03T04:05:35;100374.84;;;11.28;74.00
19508;BME280;40157;42.566;27.526;2023-04-03T04:07:35;100376.59;;;11.29;74.12
19508;BME280;40157;42.566;27.526;2023-04-03T04:09:36;100333.56;;;11.06;74.02
19508;BME280;40157;42.566;27.526;2023-04-03T04:11:36;100330.03;;;11.01;74.10
19508;BME280;40157;42.566;27.526;2023-04-03T04:13:37;100371.31;;;11.25;74.16
19508;BME280;40157;42.566;27.526;2023-04-03T04:15:37;100364.28;;;11.18;74.22
19508;BME280;40157;42.566;27.526;2023-04-03T04:17:38;100376.50;;;11.17;74.04
19508;BME280;40157;42.566;27.526;2023-04-03T04:19:39;100370.31;;;11.10;74.16
19508;BME280;40157;42.566;27.526;2023-04-03T04:21:40;100366.88;;;11.16;74.03
19508;BME280;40157;42.566;27.526;2023-04-03T04:23:41;100381.81;;;11.25;73.94
19508;BME280;40157;42.566;27.526;2023-04-03T04:25:47;100382.72;;;11.28;73.27
19508;BME280;40157;42.566;27.526;2023-04-03T04:27:47;100372.16;;;11.19;72.83
19508;BME280;40157;42.566;27.526;2023-04-03T04:29:48;100370.41;;;11.21;72.95
19508;BME280;40157;42.566;27.526;2023-04-03T04:31:48;100344.94;;;11.06;72.91
19508;BME280;40157;42.566;27.526;2023-04-03T04:33:49;100325.56;;;10.90;72.74
19508;BME280;40157;42.566;27.526;2023-04-03T04:35:49;100370.38;;;11.15;72.61
19508;BME280;40157;42.566;27.526;2023-04-03T04:37:50;100401.16;;;11.38;72.42
19508;BME280;40157;42.566;27.526;2023-04-03T04:39:50;100372.19;;;11.25;72.53
19508;BME280;40157;42.566;27.526;2023-04-03T04:41:51;100400.25;;;11.36;72.19
19508;BME280;40157;42.566;27.526;2023-04-03T04:43:52;100373.97;;;11.29;71.97
19508;BME280;40157;42.566;27.526;2023-04-03T04:46:06;100399.47;;;11.44;71.77
19508;BME280;40157;42.566;27.526;2023-04-03T04:48:07;100382.78;;;11.38;71.51
19508;BME280;40157;42.566;27.526;2023-04-03T04:50:08;100363.44;;;11.25;71.22
19508;BME280;40157;42.566;27.526;2023-04-03T04:52:09;100398.63;;;11.50;71.15
19508;BME280;40157;42.566;27.526;2023-04-03T04:54:09;100381.03;;;11.37;71.14
19508;BME280;40157;42.566;27.526;2023-04-03T04:56:10;100366.91;;;11.19;70.66
19508;BME280;40157;42.566;27.526;2023-04-03T04:58:10;100374.84;;;11.28;70.68
19508;BME280;40157;42.566;27.526;2023-04-03T05:00:11;100388.03;;;11.38;70.68
19508;BME280;40157;42.566;27.526;2023-04-03T05:02:12;100389.75;;;11.36;70.42
19508;BME280;40157;42.566;27.526;2023-04-03T05:04:12;100353.72;;;11.10;70.13
19508;BME280;40157;42.566;27.526;2023-04-03T05:06:13;100384.53;;;11.39;70.16
19508;BME280;40157;42.566;27.526;2023-04-03T05:08:14;100374.91;;;11.36;70.25
19508;BME280;40157;42.566;27.526;2023-04-03T05:10:14;100397.78;;;11.57;69.77
19508;BME280;40157;42.566;27.526;2023-04-03T05:12:15;100362.63;;;11.35;70.08
19508;BME280;40157;42.566;27.526;2023-04-03T05:14:16;100387.28;;;11.53;70.08
19508;BME280;40157;42.566;27.526;2023-04-03T05:16:16;100393.47;;;11.62;70.27
19508;BME280;40157;42.566;27.526;2023-04-03T05:18:17;100418.94;;;11.79;70.57
19508;BME280;40157;42.566;27.526;2023-04-03T05:20:17;100404.03;;;11.75;70.59
19508;BME280;40157;42.566;27.526;2023-04-03T05:22:18;100404.88;;;11.72;70.33
19508;BME280;40157;42.566;27.526;2023-04-03T05:24:18;100412.81;;;11.81;70.21
19508;BME280;40157;42.566;27.526;2023-04-03T05:26:19;100421.59;;;11.85;70.31
19508;BME280;40157;42.566;27.526;2023-04-03T05:28:21;100422.47;;;11.85;70.31
19508;BME280;40157;42.566;27.526;2023-04-03T05:30:22;100419.06;;;11.93;70.44
19508;BME280;40157;42.566;27.526;2023-04-03T05:32:23;100426.09;;;11.98;70.57
19508;BME280;40157;42.566;27.526;2023-04-03T05:34:23;100407.66;;;11.92;70.59
19508;BME280;40157;42.566;27.526;2023-04-03T05:36:24;100416.44;;;11.91;70.57
19508;BME280;40157;42.566;27.526;2023-04-03T05:38:25;100438.41;;;12.12;70.38
19508;BME280;40157;42.566;27.526;2023-04-03T05:40:26;100440.19;;;12.14;70.22
19508;BME280;40157;42.566;27.526;2023-04-03T05:42:26;100418.22;;;11.98;69.87
19508;BME280;40157;42.566;27.526;2023-04-03T05:44:27;100402.38;;;11.91;69.83
19508;BME280;40157;42.566;27.526;2023-04-03T05:46:27;100449.00;;;12.21;69.57
19508;BME280;40157;42.566;27.526;2023-04-03T05:48:27;100475.31;;;12.32;69.19
19508;BME280;40157;42.566;27.526;2023-04-03T05:50:28;100425.25;;;12.06;69.25
19508;BME280;40157;42.566;27.526;2023-04-03T05:52:30;100440.22;;;12.22;69.25
19508;BME280;40157;42.566;27.526;2023-04-03T05:54:31;100455.19;;;12.32;69.65
19508;BME280;40157;42.566;27.526;2023-04-03T05:56:32;100478.91;;;12.46;69.60
19508;BME280;40157;42.566;27.526;2023-04-03T05:58:32;100466.63;;;12.45;69.83
19508;BME280;40157;42.566;27.526;2023-04-03T06:00:33;100495.59;;;12.62;70.01
19508;BME280;40157;42.566;27.526;2023-04-03T06:02:33;100470.19;;;12.61;70.59
19508;BME280;40157;42.566;27.526;2023-04-03T06:04:34;100471.13;;;12.72;70.84
19508;BME280;40157;42.566;27.526;2023-04-03T06:08:47;100473.78;;;12.91;71.15
19508;BME280;40157;42.566;27.526;2023-04-03T06:10:47;100478.22;;;13.07;71.34
19508;BME280;40157;42.566;27.526;2023-04-03T06:12:48;100482.63;;;13.18;71.66
19508;BME280;40157;42.566;27.526;2023-04-03T06:14:48;100458.91;;;13.14;71.63
19508;BME280;40157;42.566;27.526;2023-04-03T06:16:49;100480.03;;;13.33;72.22
19508;BME280;40157;42.566;27.526;2023-04-03T06:18:49;100462.44;;;13.23;72.47
19508;BME280;40157;42.566;27.526;2023-04-03T06:20:50;100470.38;;;13.43;72.69
19508;BME280;40157;42.566;27.526;2023-04-03T06:22:50;100443.19;;;13.39;72.48
19508;BME280;40157;42.566;27.526;2023-04-03T06:24:51;100473.88;;;13.62;72.22
19508;BME280;40157;42.566;27.526;2023-04-03T06:26:52;100489.66;;;13.79;72.17
19508;BME280;40157;42.566;27.526;2023-04-03T06:28:52;100466.88;;;13.62;71.06
19508;BME280;40157;42.566;27.526;2023-04-03T06:30:53;100483.56;;;13.66;69.61
19508;BME280;40157;42.566;27.526;2023-04-03T06:32:53;100483.56;;;13.63;69.34
19508;BME280;40157;42.566;27.526;2023-04-03T06:34:54;100496.72;;;13.77;68.92
19508;BME280;40157;42.566;27.526;2023-04-03T06:36:55;100494.94;;;13.80;68.78
19508;BME280;40157;42.566;27.526;2023-04-03T06:38:56;100510.75;;;13.79;68.64
19508;BME280;40157;42.566;27.526;2023-04-03T06:40:56;100501.97;;;13.80;68.81
19508;BME280;40157;42.566;27.526;2023-04-03T06:42:57;100496.72;;;13.78;68.96
19508;BME280;40157;42.566;27.526;2023-04-03T06:44:57;100501.97;;;13.75;69.01
19508;BME280;40157;42.566;27.526;2023-04-03T06:46:58;100440.53;;;13.38;68.90
19508;BME280;40157;42.566;27.526;2023-04-03T06:48:58;100485.31;;;13.61;68.44
19508;BME280;40157;42.566;27.526;2023-04-03T06:50:59;100499.34;;;13.57;67.84
19508;BME280;40157;42.566;27.526;2023-04-03T06:52:59;100519.53;;;13.67;67.41
19508;BME280;40157;42.566;27.526;2023-04-03T06:55:01;100517.81;;;13.64;67.79
19508;BME280;40157;42.566;27.526;2023-04-03T06:57:01;100490.56;;;13.55;68.65
19508;BME280;40157;42.566;27.526;2023-04-03T06:59:02;100500.22;;;13.63;69.33
19508;BME280;40157;42.566;27.526;2023-04-03T07:01:02;100438.78;;;13.38;69.41
19508;BME280;40157;42.566;27.526;2023-04-03T07:03:03;100488.78;;;13.72;69.39
19508;BME280;40157;42.566;27.526;2023-04-03T07:05:04;100415.94;;;13.25;69.49
19508;BME280;40157;42.566;27.526;2023-04-03T07:07:06;100507.25;;;13.84;67.46
19508;BME280;40157;42.566;27.526;2023-04-03T07:09:08;100489.69;;;13.88;65.87
19508;BME280;40157;42.566;27.526;2023-04-03T07:11:10;100513.38;;;14.17;64.72
19508;BME280;40157;42.566;27.526;2023-04-03T07:13:10;100517.72;;;14.32;64.14
19508;BME280;40157;42.566;27.526;2023-04-03T07:15:11;100484.31;;;14.30;64.38
19508;BME280;40157;42.566;27.526;2023-04-03T07:17:13;100528.19;;;14.63;63.49
19508;BME280;40157;42.566;27.526;2023-04-03T07:19:13;100522.00;;;14.69;61.66
19508;BME280;40157;42.566;27.526;2023-04-03T07:21:14;100556.19;;;14.96;61.54
19508;BME280;40157;42.566;27.526;2023-04-03T07:23:15;100471.00;;;14.64;60.21
19508;BME280;40157;42.566;27.526;2023-04-03T07:25:15;100556.97;;;15.20;61.69
19508;BME280;40157;42.566;27.526;2023-04-03T07:27:16;100511.28;;;15.06;66.22
19508;BME280;40157;42.566;27.526;2023-04-03T07:29:18;100546.38;;;15.23;67.24
19508;BME280;40157;42.566;27.526;2023-04-03T07:31:18;100539.38;;;15.19;67.69
19508;BME280;40157;42.566;27.526;2023-04-03T07:33:21;100540.25;;;15.18;67.54
19508;BME280;40157;42.566;27.526;2023-04-03T07:35:21;100499.91;;;14.96;65.43
19508;BME280;40157;42.566;27.526;2023-04-03T07:37:22;100531.47;;;15.13;59.19
19508;BME280;40157;42.566;27.526;2023-04-03T07:39:23;100536.75;;;15.17;57.55
19508;BME280;40157;42.566;27.526;2023-04-03T07:41:23;100558.59;;;15.41;55.63
19508;BME280;40157;42.566;27.526;2023-04-03T07:43:23;100564.72;;;15.51;54.66
19508;BME280;40157;42.566;27.526;2023-04-03T07:45:25;100545.28;;;15.55;54.91
19508;BME280;40157;42.566;27.526;2023-04-03T07:47:26;100553.19;;;15.61;55.40
19508;BME280;40157;42.566;27.526;2023-04-03T07:49:26;100572.47;;;15.72;60.14
19508;BME280;40157;42.566;27.526;2023-04-03T07:51:27;100554.97;;;15.56;62.98
19508;BME280;40157;42.566;27.526;2023-04-03T07:53:30;100563.81;;;15.52;63.12
19508;BME280;40157;42.566;27.526;2023-04-03T07:55:31;100552.38;;;15.48;63.65
19508;BME280;40157;42.566;27.526;2023-04-03T07:57:32;100547.16;;;15.42;64.00
19508;BME280;40157;42.566;27.526;2023-04-03T07:59:32;100555.06;;;15.44;64.35
19508;BME280;40157;42.566;27.526;2023-04-03T08:01:33;100552.47;;;15.39;64.76
19508;BME280;40157;42.566;27.526;2023-04-03T08:03:33;100569.19;;;15.33;63.63
19508;BME280;40157;42.566;27.526;2023-04-03T08:05:38;100579.84;;;15.21;64.60
19508;BME280;40157;42.566;27.526;2023-04-03T08:07:39;100574.59;;;15.12;65.53
19508;BME280;40157;42.566;27.526;2023-04-03T08:09:40;100568.53;;;14.99;64.92
19508;BME280;40157;42.566;27.526;2023-04-03T08:11:40;100532.53;;;14.78;66.25
19508;BME280;40157;42.566;27.526;2023-04-03T08:13:41;100556.19;;;14.98;66.77
19508;BME280;40157;42.566;27.526;2023-04-03T08:15:43;100535.16;;;14.86;66.91
19508;BME280;40157;42.566;27.526;2023-04-03T08:17:43;100462.28;;;14.49;67.09
19508;BME280;40157;42.566;27.526;2023-04-03T08:19:44;100536.00;;;14.95;67.15
19508;BME280;40157;42.566;27.526;2023-04-03T08:21:44;100553.56;;;14.99;64.36
19508;BME280;40157;42.566;27.526;2023-04-03T08:23:49;100548.28;;;14.99;63.44
19508;BME280;40157;42.566;27.526;2023-04-03T08:25:52;100560.53;;;15.10;63.68
19508;BME280;40157;42.566;27.526;2023-04-03T08:27:53;100539.44;;;15.04;63.77
19508;BME280;40157;42.566;27.526;2023-04-03T08:29:54;100546.44;;;15.14;63.94
19508;BME280;40157;42.566;27.526;2023-04-03T08:31:54;100537.63;;;15.15;65.16
19508;BME280;40157;42.566;27.526;2023-04-03T08:33:56;100551.63;;;15.29;65.55
19508;BME280;40157;42.566;27.526;2023-04-03T08:35:57;100527.91;;;15.22;65.83
19508;BME280;40157;42.566;27.526;2023-04-03T08:37:57;100541.81;;;15.48;65.76
19508;BME280;40157;42.566;27.526;2023-04-03T08:39:58;100530.41;;;15.43;64.50
19508;BME280;40157;42.566;27.526;2023-04-03T08:41:59;100561.97;;;15.63;64.13
19508;BME280;40157;42.566;27.526;2023-04-03T08:46:13;100532.19;;;15.43;64.12
19508;BME280;40157;42.566;27.526;2023-04-03T08:48:19;100540.97;;;15.45;65.19
19508;BME280;40157;42.566;27.526;2023-04-03T08:50:28;100524.44;;;15.13;65.43
19508;BME280;40157;42.566;27.526;2023-04-03T08:52:39;100516.59;;;15.03;64.83
19508;BME280;40157;42.566;27.526;2023-04-03T08:54:53;100554.38;;;15.14;66.00
19508;BME280;40157;42.566;27.526;2023-04-03T08:56:55;100531.69;;;14.74;65.08
19508;BME280;40157;42.566;27.526;2023-04-03T08:58:58;100533.47;;;14.60;66.72
19508;BME280;40157;42.566;27.526;2023-04-03T09:01:06;100557.19;;;14.74;67.68
19508;BME280;40157;42.566;27.526;2023-04-03T09:03:20;100554.53;;;14.75;66.56
19508;BME280;40157;42.566;27.526;2023-04-03T09:05:42;100547.50;;;14.71;65.35
19508;BME280;40157;42.566;27.526;2023-04-03T09:07:47;100536.97;;;14.68;65.72
19508;BME280;40157;42.566;27.526;2023-04-03T09:09:50;100530.81;;;14.71;65.97
19508;BME280;40157;42.566;27.526;2023-04-03T09:12:03;100535.09;;;14.89;66.03
19508;BME280;40157;42.566;27.526;2023-04-03T09:16:31;100538.63;;;14.92;64.46
19508;BME280;40157;42.566;27.526;2023-04-03T09:18:40;100541.28;;;14.89;64.05
19508;BME280;40157;42.566;27.526;2023-04-03T09:22:45;100512.34;;;14.74;64.29
19508;BME280;40157;42.566;27.526;2023-04-03T09:24:50;100532.50;;;14.87;64.74
19508;BME280;40157;42.566;27.526;2023-04-03T09:27:01;100528.09;;;14.91;65.02
19508;BME280;40157;42.566;27.526;2023-04-03T09:29:08;100528.09;;;14.89;65.29
19508;BME280;40157;42.566;27.526;2023-04-03T09:33:18;100490.38;;;14.66;64.48
19508;BME280;40157;42.566;27.526;2023-04-03T09:35:24;100536.03;;;14.86;65.76
19508;BME280;40157;42.566;27.526;2023-04-03T09:37:42;100536.03;;;14.83;66.67
19508;BME280;40157;42.566;27.526;2023-04-03T09:39:53;100523.69;;;14.82;66.80
19508;BME280;40157;42.566;27.526;2023-04-03T09:43:59;100523.69;;;14.85;65.59
19508;BME280;40157;42.566;27.526;2023-04-03T09:48:26;100520.19;;;14.86;64.51
19508;BME280;40157;42.566;27.526;2023-04-03T09:50:28;100531.59;;;14.94;65.49
19508;BME280;40157;42.566;27.526;2023-04-03T09:52:29;100518.41;;;14.90;66.06
19508;BME280;40157;42.566;27.526;2023-04-03T09:54:35;100513.13;;;14.91;66.87
19508;BME280;40157;42.566;27.526;2023-04-03T09:56:40;100535.94;;;14.98;67.61
19508;BME280;40157;42.566;27.526;2023-04-03T09:58:44;100530.72;;;14.95;67.29
19508;BME280;40157;42.566;27.526;2023-04-03T10:00:54;100532.47;;;14.90;67.40
19508;BME280;40157;42.566;27.526;2023-04-03T10:02:56;100527.25;;;14.79;67.72
19508;BME280;40157;42.566;27.526;2023-04-03T10:04:57;100521.06;;;14.84;68.06
19508;BME280;40157;42.566;27.526;2023-04-03T10:06:57;100514.06;;;14.81;68.18
19508;BME280;40157;42.566;27.526;2023-04-03T10:09:04;100532.47;;;14.90;68.55
19508;BME280;40157;42.566;27.526;2023-04-03T10:13:14;100532.44;;;14.93;68.58
19508;BME280;40157;42.566;27.526;2023-04-03T10:15:17;100532.44;;;14.98;68.59
19508;BME280;40157;42.566;27.526;2023-04-03T10:19:49;100527.19;;;14.93;68.58
19508;BME280;40157;42.566;27.526;2023-04-03T10:21:58;100520.13;;;14.97;68.80
19508;BME280;40157;42.566;27.526;2023-04-03T10:24:10;100526.31;;;14.91;68.93
19508;BME280;40157;42.566;27.526;2023-04-03T10:28:59;100528.09;;;14.86;68.54
19508;BME280;40157;42.566;27.526;2023-04-03T10:35:50;100520.22;;;14.77;68.10
19508;BME280;40157;42.566;27.526;2023-04-03T10:38:00;100514.94;;;14.77;68.17
19508;BME280;40157;42.566;27.526;2023-04-03T10:42:37;100518.47;;;14.79;67.78
19508;BME280;40157;42.566;27.526;2023-04-03T10:44:53;100524.63;;;14.76;67.43
19508;BME280;40157;42.566;27.526;2023-04-03T10:47:02;100525.50;;;14.77;67.53
19508;BME280;40157;42.566;27.526;2023-04-03T10:49:25;100529.03;;;14.79;67.79
19508;BME280;40157;42.566;27.526;2023-04-03T10:51:42;100501.78;;;14.68;68.17
19508;BME280;40157;42.566;27.526;2023-04-03T10:58:38;100508.78;;;14.73;67.89
19508;BME280;40157;42.566;27.526;2023-04-03T11:00:42;100523.69;;;14.82;67.82
19508;BME280;40157;42.566;27.526;2023-04-03T11:03:03;100507.94;;;14.73;67.98
19508;BME280;40157;42.566;27.526;2023-04-03T11:05:14;100521.09;;;14.77;67.66
19508;BME280;40157;42.566;27.526;2023-04-03T11:07:24;100520.25;;;14.71;67.70
19508;BME280;40157;42.566;27.526;2023-04-03T11:09:35;100518.50;;;14.70;68.16
19508;BME280;40157;42.566;27.526;2023-04-03T11:11:39;100500.94;;;14.56;69.05